createdAt,value
2023-05-24T00:00:43.314Z,6.60
2023-05-24T00:03:10.652Z,6.40
2023-05-24T00:05:40.654Z,6.70
2023-05-24T00:08:08.102Z,6.00
2023-05-24T00:10:35.567Z,5.40
2023-05-24T00:13:02.707Z,5.70
2023-05-24T00:15:29.757Z,6.10
2023-05-24T00:17:56.824Z,6.20
2023-05-24T00:20:23.864Z,6.40
2023-05-24T00:22:51.415Z,6.60
2023-05-24T00:25:18.665Z,6.90
2023-05-24T00:27:46.230Z,6.80
2023-05-24T00:30:13.208Z,6.60
2023-05-24T00:32:42.316Z,6.80
2023-05-24T00:35:09.425Z,5.50
2023-05-24T00:37:37.200Z,6.50
2023-05-24T00:40:04.788Z,6.90
2023-05-24T00:42:32.108Z,6.80
2023-05-24T00:44:58.954Z,7.40
2023-05-24T00:47:26.110Z,7.80
2023-05-24T00:49:53.157Z,6.90
2023-05-24T00:52:20.096Z,5.90
2023-05-24T00:54:47.056Z,7.00
2023-05-24T00:57:14.120Z,7.50
2023-05-24T00:59:41.168Z,7.70
2023-05-24T01:02:08.954Z,7.50
2023-05-24T01:04:37.805Z,7.80
2023-05-24T01:07:37.546Z,8.00
2023-05-24T01:10:08.160Z,7.40
2023-05-24T01:12:46.896Z,6.80
2023-05-24T01:15:22.429Z,7.50
2023-05-24T01:18:01.230Z,6.90
2023-05-24T01:20:33.082Z,7.50
2023-05-24T01:23:16.136Z,7.70
2023-05-24T01:26:03.480Z,8.10
2023-05-24T01:28:31.533Z,7.40
2023-05-24T01:30:58.589Z,6.40
2023-05-24T01:33:25.635Z,6.40
2023-05-24T01:35:52.596Z,7.30
2023-05-24T01:38:19.530Z,7.10
2023-05-24T01:40:47.087Z,7.70
2023-05-24T01:43:17.972Z,7.60
2023-05-24T01:46:00.434Z,7.90
2023-05-24T01:48:27.376Z,8.10
2023-05-24T01:50:58.411Z,7.30
2023-05-24T01:53:26.667Z,7.00
2023-05-24T01:55:56.527Z,7.10
2023-05-24T01:58:23.564Z,7.40
2023-05-24T02:00:50.868Z,7.10
2023-05-24T02:03:17.956Z,7.50
2023-05-24T02:05:45.939Z,7.50
2023-05-24T02:08:12.992Z,7.30
2023-05-24T02:10:40.640Z,6.60
2023-05-24T02:13:07.915Z,7.00
2023-05-24T02:15:35.289Z,8.00
2023-05-24T02:18:02.419Z,7.40
2023-05-24T02:20:36.554Z,7.00
2023-05-24T02:23:04.091Z,7.70
2023-05-24T02:25:31.652Z,7.80
2023-05-24T02:27:59.298Z,6.90
2023-05-24T02:30:26.881Z,6.80
2023-05-24T02:32:53.954Z,6.80
2023-05-24T02:35:20.882Z,7.30
2023-05-24T02:37:47.822Z,7.30
2023-05-24T02:40:15.287Z,8.00
2023-05-24T02:42:42.538Z,7.10
2023-05-24T02:45:10.269Z,7.80
2023-05-24T02:47:37.517Z,6.70
2023-05-24T02:50:05.729Z,7.40
2023-05-24T02:52:32.993Z,8.10
2023-05-24T02:54:59.941Z,7.30
2023-05-24T02:57:28.411Z,8.00
2023-05-24T02:59:55.772Z,8.70
2023-05-24T03:02:22.819Z,7.90
2023-05-24T03:04:49.983Z,8.40
2023-05-24T03:07:17.122Z,7.30
2023-05-24T03:09:44.072Z,7.00
2023-05-24T03:12:12.453Z,7.10
2023-05-24T03:14:39.394Z,7.20
2023-05-24T03:17:06.346Z,7.90
2023-05-24T03:19:33.947Z,7.90
2023-05-24T03:22:01.176Z,7.50
2023-05-24T03:24:28.110Z,7.10
2023-05-24T03:26:55.060Z,6.40
2023-05-24T03:29:22.206Z,6.30
2023-05-24T03:31:50.918Z,6.40
2023-05-24T03:34:17.946Z,6.40
2023-05-24T03:36:45.003Z,5.50
2023-05-24T03:39:12.150Z,5.20
2023-05-24T03:41:53.940Z,5.70
2023-05-24T03:44:20.988Z,4.60
2023-05-24T03:46:47.948Z,4.30
2023-05-24T03:49:15.099Z,4.60
2023-05-24T03:51:42.542Z,5.10
2023-05-24T03:54:09.695Z,5.90
2023-05-24T03:56:36.951Z,5.10
2023-05-24T03:59:04.091Z,5.50
2023-05-24T04:01:34.430Z,5.10
2023-05-24T04:04:03.255Z,4.60
2023-05-24T04:06:30.465Z,4.80
2023-05-24T04:08:58.938Z,5.50
2023-05-24T04:11:28.798Z,4.90
2023-05-24T04:13:56.959Z,4.30
2023-05-24T04:16:24.425Z,5.30
2023-05-24T04:18:51.962Z,4.60
2023-05-24T04:21:19.164Z,4.70
2023-05-24T04:23:46.253Z,4.20
2023-05-24T04:26:13.815Z,4.60
2023-05-24T04:28:41.075Z,4.80
2023-05-24T04:31:09.513Z,4.80
2023-05-24T04:33:38.855Z,4.70
2023-05-24T04:36:07.952Z,4.70
2023-05-24T04:38:35.933Z,5.30
2023-05-24T04:41:02.878Z,4.90
2023-05-24T04:43:30.232Z,4.90
2023-05-24T04:45:57.475Z,5.30
2023-05-24T04:48:25.346Z,4.60
2023-05-24T04:50:53.551Z,4.30
2023-05-24T04:53:21.135Z,4.60
2023-05-24T04:55:48.335Z,4.50
2023-05-24T04:58:15.894Z,4.70
2023-05-24T05:00:43.256Z,4.60
2023-05-24T05:03:10.664Z,4.30
2023-05-24T05:05:37.859Z,4.30
2023-05-24T05:08:04.906Z,3.80
2023-05-24T05:10:32.054Z,3.90
2023-05-24T05:12:59.106Z,3.50
2023-05-24T05:15:26.154Z,3.70
2023-05-24T05:17:53.658Z,3.30
2023-05-24T05:20:21.037Z,3.50
2023-05-24T05:22:48.571Z,3.60
2023-05-24T05:25:16.804Z,3.50
2023-05-24T05:27:45.081Z,3.70
2023-05-24T05:30:12.776Z,3.70
2023-05-24T05:32:39.898Z,2.90
2023-05-24T05:35:07.583Z,3.20
2023-05-24T05:37:35.134Z,3.30
2023-05-24T05:40:03.605Z,3.30
2023-05-24T05:42:30.760Z,3.40
2023-05-24T05:44:57.708Z,3.40
2023-05-24T05:47:24.693Z,3.40
2023-05-24T05:49:51.809Z,3.60
2023-05-24T05:52:18.758Z,3.80
2023-05-24T05:54:45.701Z,3.40
2023-05-24T05:57:12.855Z,3.50
2023-05-24T05:59:39.901Z,3.50
2023-05-24T06:02:07.235Z,3.10
2023-05-24T06:06:23.991Z,3.70
2023-05-24T06:08:51.753Z,3.50
2023-05-24T06:11:19.646Z,3.30
2023-05-24T06:13:47.398Z,3.50
2023-05-24T06:16:15.291Z,3.50
2023-05-24T06:18:50.211Z,3.50
2023-05-24T06:21:22.148Z,3.80
2023-05-24T06:23:50.020Z,3.40
2023-05-24T06:26:17.989Z,3.30
2023-05-24T06:28:45.758Z,3.40
2023-05-24T06:31:13.840Z,2.80
2023-05-24T06:33:44.669Z,3.30
2023-05-24T06:36:18.271Z,3.30
2023-05-24T06:38:46.034Z,2.90
2023-05-24T06:41:13.817Z,2.50
2023-05-24T06:43:41.606Z,3.10
2023-05-24T06:46:09.795Z,2.60
2023-05-24T06:48:37.751Z,2.40
2023-05-24T06:51:05.588Z,2.60
2023-05-24T06:53:33.359Z,2.70
2023-05-24T06:56:01.120Z,2.40
2023-05-24T06:58:28.892Z,2.60
2023-05-24T07:00:56.699Z,2.60
2023-05-24T07:03:25.453Z,2.70
2023-05-24T07:05:53.312Z,2.30
2023-05-24T07:08:21.093Z,2.50
2023-05-24T07:10:48.845Z,2.60
2023-05-24T07:13:17.252Z,3.10
2023-05-24T07:15:47.087Z,2.30
2023-05-24T07:20:42.861Z,2.40
2023-05-24T07:23:10.958Z,2.40
2023-05-24T07:25:39.128Z,2.60
2023-05-24T07:28:07.409Z,2.40
2023-05-24T07:30:35.832Z,3.00
2023-05-24T07:33:04.076Z,2.30
2023-05-24T07:35:33.277Z,2.30
2023-05-24T07:38:01.392Z,2.30
2023-05-24T07:40:29.107Z,2.40
2023-05-24T07:42:56.878Z,2.10
2023-05-24T07:45:24.747Z,2.30
2023-05-24T07:47:54.521Z,2.70
2023-05-24T07:50:24.384Z,2.70
2023-05-24T07:52:52.242Z,2.30
2023-05-24T07:55:20.215Z,2.50
2023-05-24T07:57:48.137Z,2.70
2023-05-24T08:00:16.863Z,2.40
2023-05-24T08:05:15.392Z,2.50
2023-05-24T08:07:43.252Z,3.00
2023-05-24T08:10:13.979Z,2.80
2023-05-24T08:12:42.551Z,2.90
2023-05-24T08:15:11.046Z,2.80
2023-05-24T08:17:39.466Z,3.10
2023-05-24T08:20:10.201Z,2.60
2023-05-24T08:22:38.329Z,2.80
2023-05-24T08:25:07.006Z,2.90
2023-05-24T08:27:35.270Z,3.20
2023-05-24T08:30:04.504Z,2.90
2023-05-24T08:32:32.817Z,3.50
2023-05-24T08:35:14.893Z,3.10
2023-05-24T08:37:48.330Z,3.50
2023-05-24T08:40:16.562Z,3.10
2023-05-24T08:42:45.044Z,3.10
2023-05-24T08:45:13.741Z,3.10
2023-05-24T08:47:42.690Z,3.60
2023-05-24T08:50:10.905Z,3.60
2023-05-24T08:52:40.026Z,3.50
2023-05-24T08:55:08.839Z,3.30
2023-05-24T08:57:39.711Z,3.40
2023-05-24T09:00:14.509Z,3.30
2023-05-24T09:02:43.582Z,4.00
2023-05-24T09:05:12.624Z,3.20
2023-05-24T09:07:41.034Z,3.30
2023-05-24T09:10:09.685Z,3.00
2023-05-24T09:12:39.275Z,3.20
2023-05-24T09:15:08.632Z,3.50
2023-05-24T09:17:37.458Z,3.20
2023-05-24T09:20:11.497Z,2.80
2023-05-24T09:22:42.252Z,3.10
2023-05-24T09:25:11.588Z,3.10
2023-05-24T09:27:39.692Z,3.40
2023-05-24T09:30:11.311Z,3.10
2023-05-24T09:32:39.295Z,2.90
2023-05-24T09:35:10.979Z,2.60
2023-05-24T09:37:39.195Z,2.90
2023-05-24T09:40:09.146Z,3.30
2023-05-24T09:42:37.808Z,3.20
2023-05-24T09:45:09.535Z,3.30
2023-05-24T09:47:38.163Z,3.40
2023-05-24T09:50:07.643Z,2.80
2023-05-24T09:52:38.603Z,3.00
2023-05-24T09:55:13.627Z,2.60
2023-05-24T09:57:41.502Z,3.30
2023-05-24T10:00:17.880Z,3.40
2023-05-24T10:02:53.470Z,3.10
2023-05-24T10:05:22.007Z,2.80
2023-05-24T10:07:49.862Z,3.00
2023-05-24T10:10:17.626Z,3.00
2023-05-24T10:12:47.121Z,3.10
2023-05-24T10:17:42.704Z,3.00
2023-05-24T10:20:12.778Z,3.10
2023-05-24T10:22:47.717Z,3.00
2023-05-24T10:25:27.794Z,2.80
2023-05-24T10:28:01.170Z,3.10
2023-05-24T10:30:35.462Z,2.70
2023-05-24T10:33:05.304Z,2.80
2023-05-24T10:38:06.662Z,2.30
2023-05-24T10:40:34.429Z,2.90
2023-05-24T10:43:07.007Z,2.80
2023-05-24T10:45:40.417Z,2.60
2023-05-24T10:48:14.575Z,2.80
2023-05-24T10:50:43.067Z,3.00
2023-05-24T10:53:15.284Z,2.10
2023-05-24T10:55:55.947Z,2.50
2023-05-24T10:58:30.780Z,2.90
2023-05-24T11:00:58.551Z,2.80
2023-05-24T11:03:26.319Z,2.70
2023-05-24T11:05:55.065Z,2.70
2023-05-24T11:08:44.200Z,2.80
2023-05-24T11:13:44.408Z,2.40
2023-05-24T11:16:34.305Z,2.50
2023-05-24T11:19:16.186Z,2.50
2023-05-24T11:21:51.742Z,2.50
2023-05-24T11:24:20.311Z,2.60
2023-05-24T11:26:48.201Z,3.10
2023-05-24T11:29:22.918Z,3.40
2023-05-24T11:31:55.616Z,2.90
2023-05-24T11:34:24.423Z,2.60
2023-05-24T11:36:55.748Z,2.70
2023-05-24T11:43:17.472Z,3.20
2023-05-24T11:45:52.073Z,2.50
2023-05-24T11:48:20.130Z,2.70
2023-05-24T11:50:51.276Z,2.80
2023-05-24T11:53:20.213Z,2.40
2023-05-24T11:55:49.103Z,2.80
2023-05-24T11:58:16.979Z,2.20
2023-05-24T12:00:44.945Z,2.80
2023-05-24T12:03:12.877Z,2.80
2023-05-24T12:05:40.785Z,2.70
2023-05-24T12:08:12.425Z,3.00
2023-05-24T12:10:41.985Z,2.40
2023-05-24T12:15:56.524Z,2.30
2023-05-24T12:18:26.426Z,2.40
2023-05-24T12:20:54.532Z,2.30
2023-05-24T12:23:28.037Z,2.60
2023-05-24T12:26:00.256Z,2.60
2023-05-24T12:28:28.834Z,2.40
2023-05-24T12:30:56.626Z,2.50
2023-05-24T12:33:24.616Z,2.50
2023-05-24T12:35:53.708Z,2.70
2023-05-24T12:38:25.884Z,2.40
2023-05-24T12:41:10.831Z,2.60
2023-05-24T12:43:40.930Z,2.80
2023-05-24T12:46:08.858Z,2.70
2023-05-24T12:48:36.607Z,2.30
2023-05-24T12:51:04.673Z,2.60
2023-05-24T12:53:32.659Z,2.40
2023-05-24T12:56:01.034Z,2.30
2023-05-24T12:58:29.303Z,2.40
2023-05-24T13:00:57.314Z,4.70
2023-05-24T13:03:25.254Z,3.10
2023-05-24T13:05:53.135Z,2.60
2023-05-24T13:08:21.084Z,2.60
2023-05-24T13:10:51.149Z,2.50
2023-05-24T13:13:18.973Z,2.70
2023-05-24T13:15:47.762Z,3.50
2023-05-24T13:18:15.637Z,2.80
2023-05-24T13:20:43.603Z,2.60
2023-05-24T13:23:11.779Z,2.40
2023-05-24T13:25:39.542Z,2.50
2023-05-24T13:28:07.466Z,2.60
2023-05-24T13:30:35.388Z,2.70
2023-05-24T13:33:03.307Z,2.50
2023-05-24T13:35:31.631Z,2.50
2023-05-24T13:37:59.504Z,2.50
2023-05-24T13:40:27.415Z,2.70
2023-05-24T13:42:57.131Z,2.60
2023-05-24T13:45:25.470Z,3.30
2023-05-24T13:47:54.195Z,3.20
2023-05-24T13:50:24.122Z,3.00
2023-05-24T13:52:52.029Z,2.80
2023-05-24T13:55:19.793Z,2.90
2023-05-24T13:57:51.695Z,2.70
2023-05-24T14:00:20.358Z,2.50
2023-05-24T14:02:48.787Z,2.40
2023-05-24T14:05:27.514Z,2.60
2023-05-24T14:07:57.864Z,2.80
2023-05-24T14:10:26.285Z,2.10
2023-05-24T14:13:11.232Z,2.50
2023-05-24T14:15:42.706Z,2.60
2023-05-24T14:18:11.027Z,2.60
2023-05-24T14:20:40.375Z,2.80
2023-05-24T14:25:36.508Z,3.10
2023-05-24T14:28:04.289Z,3.40
2023-05-24T14:30:32.557Z,3.10
2023-05-24T14:33:01.436Z,3.20
2023-05-24T14:35:29.316Z,2.90
2023-05-24T14:37:57.084Z,2.80
2023-05-24T14:40:24.878Z,2.80
2023-05-24T14:42:52.620Z,3.00
2023-05-24T14:45:20.383Z,3.30
2023-05-24T14:47:48.198Z,3.40
2023-05-24T14:50:16.325Z,3.00
2023-05-24T14:52:44.088Z,3.40
2023-05-24T14:55:11.908Z,3.30
2023-05-24T14:57:39.728Z,3.20
2023-05-24T15:00:08.803Z,2.90
2023-05-24T15:02:37.559Z,3.20
2023-05-24T15:05:06.298Z,3.10
2023-05-24T15:07:34.071Z,2.70
2023-05-24T15:10:01.977Z,3.20
2023-05-24T15:12:29.920Z,3.40
2023-05-24T15:14:57.881Z,3.50
2023-05-24T15:17:26.674Z,3.30
2023-05-24T15:19:54.562Z,3.10
2023-05-24T15:22:22.868Z,3.50
2023-05-24T15:24:50.686Z,3.70
2023-05-24T15:27:18.484Z,3.10
2023-05-24T15:29:46.323Z,3.60
2023-05-24T15:32:14.103Z,3.60
2023-05-24T15:34:41.965Z,3.60
2023-05-24T15:37:09.832Z,3.50
2023-05-24T15:39:37.910Z,3.40
2023-05-24T15:42:06.160Z,3.70
2023-05-24T15:44:33.947Z,3.30
2023-05-24T15:47:01.823Z,3.50
2023-05-24T15:49:29.786Z,3.30
2023-05-24T15:52:04.202Z,3.00
2023-05-24T15:54:33.121Z,3.80
2023-05-24T15:57:02.195Z,3.60
2023-05-24T15:59:30.003Z,3.50
2023-05-24T16:01:57.882Z,3.90
2023-05-24T16:04:25.704Z,3.40
2023-05-24T16:06:53.490Z,3.70
2023-05-24T16:09:21.540Z,3.60
2023-05-24T16:11:49.410Z,3.50
2023-05-24T16:14:17.176Z,3.30
2023-05-24T16:16:45.036Z,3.80
2023-05-24T16:19:12.924Z,4.00
2023-05-24T16:21:40.892Z,3.20
2023-05-24T16:24:09.467Z,3.70
2023-05-24T16:26:37.443Z,3.90
2023-05-24T16:29:07.363Z,5.50
2023-05-24T16:31:35.167Z,4.70
2023-05-24T16:34:03.303Z,4.40
2023-05-24T16:36:32.090Z,5.20
2023-05-24T16:38:59.949Z,5.70
2023-05-24T16:41:34.899Z,8.60
2023-05-24T16:44:02.667Z,7.50
2023-05-24T16:46:30.921Z,4.60
2023-05-24T16:48:59.531Z,4.00
2023-05-24T16:51:27.299Z,5.30
2023-05-24T16:53:55.060Z,5.20
2023-05-24T16:56:23.654Z,4.70
2023-05-24T16:58:51.629Z,4.10
2023-05-24T17:01:19.506Z,3.60
2023-05-24T17:03:48.108Z,3.50
2023-05-24T17:06:15.995Z,3.90
2023-05-24T17:08:43.821Z,3.50
2023-05-24T17:11:12.207Z,3.50
2023-05-24T17:13:40.376Z,3.20
2023-05-24T17:16:08.472Z,3.60
2023-05-24T17:18:36.218Z,3.70
2023-05-24T17:21:04.652Z,4.00
2023-05-24T17:23:33.601Z,3.70
2023-05-24T17:26:02.875Z,3.30
2023-05-24T17:28:30.810Z,3.30
2023-05-24T17:30:59.636Z,3.40
2023-05-24T17:33:28.371Z,3.30
2023-05-24T17:36:02.820Z,3.30
2023-05-24T17:38:33.357Z,3.30
2023-05-24T17:41:00.993Z,2.70
2023-05-24T17:43:34.580Z,2.90
2023-05-24T17:46:09.668Z,3.00
2023-05-24T17:48:38.236Z,3.00
2023-05-24T17:51:07.397Z,3.20
2023-05-24T17:53:35.730Z,2.90
2023-05-24T17:56:03.731Z,3.00
2023-05-24T17:58:33.006Z,3.10
2023-05-24T18:01:00.772Z,3.00
2023-05-24T18:03:28.453Z,3.00
2023-05-24T18:05:56.335Z,2.40
2023-05-24T18:08:25.504Z,2.70
2023-05-24T18:10:53.080Z,2.90
2023-05-24T18:13:20.688Z,3.00
2023-05-24T18:15:51.822Z,2.80
2023-05-24T18:18:19.416Z,3.00
2023-05-24T18:20:47.087Z,3.00
2023-05-24T18:23:59.766Z,2.80
2023-05-24T18:26:27.426Z,3.30
2023-05-24T18:28:55.185Z,3.00
2023-05-24T18:31:22.723Z,2.90
2023-05-24T18:33:50.614Z,3.00
2023-05-24T18:36:18.447Z,3.20
2023-05-24T18:38:47.525Z,3.10
2023-05-24T18:41:16.692Z,3.20
2023-05-24T18:43:44.317Z,2.80
2023-05-24T18:46:15.238Z,3.50
2023-05-24T18:48:43.027Z,3.50
2023-05-24T18:51:10.695Z,3.00
2023-05-24T18:53:38.253Z,3.00
2023-05-24T18:56:06.474Z,3.60
2023-05-24T18:58:34.035Z,3.50
2023-05-24T19:01:01.746Z,3.50
2023-05-24T19:03:29.583Z,3.50
2023-05-24T19:05:57.375Z,3.60
2023-05-24T19:08:24.975Z,3.20
2023-05-24T19:10:52.671Z,3.20
2023-05-24T19:13:20.446Z,3.30
2023-05-24T19:15:47.999Z,3.30
2023-05-24T19:18:16.197Z,3.30
2023-05-24T19:20:43.834Z,3.60
2023-05-24T19:23:11.717Z,3.40
2023-05-24T19:25:42.303Z,3.50
2023-05-24T19:28:10.952Z,3.60
2023-05-24T19:30:38.645Z,3.90
2023-05-24T19:33:07.397Z,3.50
2023-05-24T19:35:35.252Z,3.50
2023-05-24T19:38:02.903Z,3.40
2023-05-24T19:40:30.581Z,3.50
2023-05-24T19:42:58.212Z,3.30
2023-05-24T19:45:25.984Z,3.50
2023-05-24T19:47:53.568Z,3.70
2023-05-24T19:50:21.336Z,3.10
2023-05-24T19:52:48.853Z,3.60
2023-05-24T19:55:16.496Z,3.70
2023-05-24T19:57:44.108Z,3.60
2023-05-24T20:00:13.951Z,3.60
2023-05-24T20:02:41.656Z,3.80
2023-05-24T20:05:09.553Z,4.10
2023-05-24T20:07:38.255Z,4.10
2023-05-24T20:10:06.837Z,3.90
2023-05-24T20:12:34.813Z,3.90
2023-05-24T20:15:02.806Z,3.70
2023-05-24T20:17:30.743Z,3.90
2023-05-24T20:19:58.456Z,4.20
2023-05-24T20:22:26.164Z,4.00
2023-05-24T20:24:53.692Z,3.80
2023-05-24T20:27:21.606Z,4.10
2023-05-24T20:29:49.164Z,3.90
2023-05-24T20:32:17.217Z,3.90
2023-05-24T20:34:44.877Z,4.10
2023-05-24T20:37:12.482Z,4.00
2023-05-24T20:39:40.041Z,4.60
2023-05-24T20:42:08.572Z,3.60
2023-05-24T20:44:36.236Z,3.80
2023-05-24T20:47:03.912Z,4.00
2023-05-24T20:49:31.589Z,4.30
2023-05-24T20:51:59.279Z,3.80
2023-05-24T20:54:26.833Z,3.70
2023-05-24T20:56:54.378Z,4.10
2023-05-24T20:59:21.938Z,3.80
2023-05-24T21:01:49.581Z,4.70
2023-05-24T21:04:17.436Z,5.00
2023-05-24T21:06:45.463Z,4.20
2023-05-24T21:09:13.079Z,4.00
2023-05-24T21:11:40.834Z,4.10
2023-05-24T21:14:08.744Z,4.50
2023-05-24T21:16:36.736Z,5.10
2023-05-24T21:19:04.440Z,5.50
2023-05-24T21:21:32.307Z,7.10
2023-05-24T21:23:59.964Z,5.40
2023-05-24T21:26:27.597Z,4.70
2023-05-24T21:28:55.398Z,4.40
2023-05-24T21:31:23.250Z,4.10
2023-05-24T21:33:51.087Z,3.60
2023-05-24T21:36:18.650Z,4.10
2023-05-24T21:38:47.071Z,4.40
2023-05-24T21:41:14.886Z,4.00
2023-05-24T21:43:43.016Z,4.10
2023-05-24T21:46:10.548Z,3.90
2023-05-24T21:48:38.138Z,4.30
2023-05-24T21:51:06.080Z,4.10
2023-05-24T21:53:35.294Z,4.40
2023-05-24T21:56:06.754Z,4.40
2023-05-24T21:58:34.849Z,4.30
2023-05-24T22:01:02.485Z,3.90
2023-05-24T22:03:30.111Z,4.30
2023-05-24T22:05:57.817Z,4.30
2023-05-24T22:08:25.590Z,4.20
2023-05-24T22:10:53.158Z,4.10
2023-05-24T22:13:20.673Z,4.40
2023-05-24T22:15:48.204Z,4.60
2023-05-24T22:18:18.847Z,4.80
2023-05-24T22:20:46.416Z,4.50
2023-05-24T22:23:14.523Z,4.10
2023-05-24T22:25:42.857Z,4.30
2023-05-24T22:28:10.694Z,4.30
2023-05-24T22:30:38.264Z,5.00
2023-05-24T22:33:05.816Z,4.40
2023-05-24T22:35:33.437Z,4.60
2023-05-24T22:38:01.696Z,3.70
2023-05-24T22:40:29.397Z,3.40
2023-05-24T22:42:57.067Z,3.40
2023-05-24T22:45:24.619Z,3.70
2023-05-24T22:47:54.310Z,3.60
2023-05-24T22:50:22.142Z,3.60
2023-05-24T22:52:49.757Z,3.80
2023-05-24T22:55:17.661Z,3.80
2023-05-24T22:57:45.207Z,4.00
2023-05-24T23:00:13.512Z,3.50
2023-05-24T23:02:41.258Z,3.80
2023-05-24T23:05:09.728Z,3.90
2023-05-24T23:07:38.219Z,4.00
2023-05-24T23:10:08.059Z,3.30
2023-05-24T23:12:36.106Z,3.30
2023-05-24T23:15:04.820Z,3.90
2023-05-24T23:17:32.563Z,3.80
2023-05-24T23:20:00.389Z,4.20
2023-05-24T23:22:28.167Z,4.00
2023-05-24T23:24:56.140Z,4.20
2023-05-24T23:27:23.959Z,4.10
2023-05-24T23:29:51.546Z,4.00
2023-05-24T23:32:19.309Z,4.00
2023-05-24T23:34:47.134Z,4.40
2023-05-24T23:37:14.969Z,4.50
2023-05-24T23:39:42.627Z,4.90
2023-05-24T23:42:10.145Z,4.50
2023-05-24T23:44:37.756Z,4.90
2023-05-24T23:47:05.520Z,5.00
2023-05-24T23:49:33.555Z,4.00
2023-05-24T23:52:01.357Z,4.10
2023-05-24T23:54:28.900Z,4.10
2023-05-24T23:56:56.733Z,4.70
2023-05-24T23:59:24.554Z,4.50
